sensor_id;sensor_type;location;lat;lon;timestamp;pressure;altitude;pressure_sealevel;temperature;humidity
25232;BME280;13176;51.140;6.290;2023-04-15T00:00:56;99935.88;;;12.01;54.19
25232;BME280;13176;51.140;6.290;2023-04-15T00:03:23;100024.84;;;12.25;56.09
25232;BME280;13176;51.140;6.290;2023-04-15T00:05:50;100030.06;;;12.25;55.85
25232;BME280;13176;51.140;6.290;2023-04-15T00:08:17;100012.09;;;12.15;56.33
25232;BME280;13176;51.140;6.290;2023-04-15T00:10:43;100027.16;;;12.07;57.36
25232;BME280;13176;51.140;6.290;2023-04-15T00:13:11;99975.75;;;11.80;56.32
25232;BME280;13176;51.140;6.290;2023-04-15T00:15:38;99991.06;;;11.92;57.16
25232;BME280;13176;51.140;6.290;2023-04-15T00:18:04;100009.09;;;12.01;56.53
25232;BME280;13176;51.140;6.290;2023-04-15T00:20:30;99954.38;;;11.66;56.23
25232;BME280;13176;51.140;6.290;2023-04-15T00:22:57;99839.56;;;11.05;55.33
25232;BME280;13176;51.140;6.290;2023-04-15T00:25:25;100027.50;;;12.24;55.51
25232;BME280;13176;51.140;6.290;2023-04-15T00:27:52;99963.03;;;11.95;55.56
25232;BME280;13176;51.140;6.290;2023-04-15T00:30:18;100012.09;;;12.15;55.54
25232;BME280;13176;51.140;6.290;2023-04-15T00:32:45;99985.47;;;11.75;55.74
25232;BME280;13176;51.140;6.290;2023-04-15T00:35:12;99977.44;;;11.52;57.09
25232;BME280;13176;51.140;6.290;2023-04-15T00:37:39;99914.97;;;10.85;57.63
25232;BME280;13176;51.140;6.290;2023-04-15T00:40:06;99970.66;;;10.84;59.22
25232;BME280;13176;51.140;6.290;2023-04-15T00:42:38;99984.69;;;10.80;60.47
25232;BME280;13176;51.140;6.290;2023-04-15T00:45:04;100038.75;;;11.39;59.54
25232;BME280;13176;51.140;6.290;2023-04-15T00:47:32;100007.63;;;11.32;59.07
25232;BME280;13176;51.140;6.290;2023-04-15T00:50:00;100034.91;;;11.52;58.45
25232;BME280;13176;51.140;6.290;2023-04-15T00:52:27;100007.88;;;11.53;57.66
25232;BME280;13176;51.140;6.290;2023-04-15T00:54:54;100036.56;;;11.56;58.23
25232;BME280;13176;51.140;6.290;2023-04-15T00:57:21;100027.63;;;11.32;59.44
25232;BME280;13176;51.140;6.290;2023-04-15T00:59:48;100021.06;;;11.18;59.06
25232;BME280;13176;51.140;6.290;2023-04-15T01:02:14;100012.19;;;11.25;59.35
25232;BME280;13176;51.140;6.290;2023-04-15T01:04:41;99922.09;;;10.79;57.88
25232;BME280;13176;51.140;6.290;2023-04-15T01:07:08;100023.72;;;11.47;57.49
25232;BME280;13176;51.140;6.290;2023-04-15T01:09:35;99982.63;;;11.23;57.49
25232;BME280;13176;51.140;6.290;2023-04-15T01:12:01;99884.59;;;10.52;57.14
25232;BME280;13176;51.140;6.290;2023-04-15T01:14:29;100005.78;;;11.35;56.97
25232;BME280;13176;51.140;6.290;2023-04-15T01:16:56;100000.63;;;11.32;57.75
25232;BME280;13176;51.140;6.290;2023-04-15T01:19:22;100006.81;;;11.30;57.42
25232;BME280;13176;51.140;6.290;2023-04-15T01:21:49;100011.88;;;11.35;57.74
25232;BME280;13176;51.140;6.290;2023-04-15T01:24:17;100041.09;;;11.48;57.93
25232;BME280;13176;51.140;6.290;2023-04-15T01:26:44;99929.75;;;10.86;57.42
25232;BME280;13176;51.140;6.290;2023-04-15T01:29:11;100011.00;;;11.35;57.85
25232;BME280;13176;51.140;6.290;2023-04-15T01:31:38;99999.03;;;11.28;57.20
25232;BME280;13176;51.140;6.290;2023-04-15T01:34:04;99907.63;;;10.69;57.40
25232;BME280;13176;51.140;6.290;2023-04-15T01:36:31;99975.53;;;10.96;57.07
25232;BME280;13176;51.140;6.290;2023-04-15T01:38:57;100012.34;;;11.19;57.02
25232;BME280;13176;51.140;6.290;2023-04-15T01:41:25;100047.47;;;11.38;57.13
25232;BME280;13176;51.140;6.290;2023-04-15T01:43:52;100008.75;;;10.91;58.14
25232;BME280;13176;51.140;6.290;2023-04-15T01:46:19;100028.47;;;11.03;58.78
25232;BME280;13176;51.140;6.290;2023-04-15T01:48:45;100049.50;;;10.95;59.17
25232;BME280;13176;51.140;6.290;2023-04-15T01:51:12;100011.75;;;10.76;58.62
25232;BME280;13176;51.140;6.290;2023-04-15T01:53:38;100054.88;;;10.91;60.12
25232;BME280;13176;51.140;6.290;2023-04-15T01:56:05;100035.09;;;10.82;60.03
25232;BME280;13176;51.140;6.290;2023-04-15T01:58:32;100004.91;;;10.72;59.75
25232;BME280;13176;51.140;6.290;2023-04-15T02:00:58;99968.66;;;10.62;59.40
25232;BME280;13176;51.140;6.290;2023-04-15T02:03:25;99925.94;;;10.34;58.67
25232;BME280;13176;51.140;6.290;2023-04-15T02:05:52;100030.34;;;10.96;57.86
25232;BME280;13176;51.140;6.290;2023-04-15T02:08:19;100024.50;;;10.88;58.21
25232;BME280;13176;51.140;6.290;2023-04-15T02:10:45;99913.31;;;10.18;58.88
25232;BME280;13176;51.140;6.290;2023-04-15T02:13:12;100041.88;;;10.89;58.53
25232;BME280;13176;51.140;6.290;2023-04-15T02:15:39;99960.00;;;10.26;58.92
25232;BME280;13176;51.140;6.290;2023-04-15T02:18:05;99913.53;;;10.09;58.59
25232;BME280;13176;51.140;6.290;2023-04-15T02:20:31;100011.63;;;10.47;59.28
25232;BME280;13176;51.140;6.290;2023-04-15T02:22:58;100010.28;;;10.31;60.72
25232;BME280;13176;51.140;6.290;2023-04-15T02:25:24;99938.16;;;9.96;60.46
25232;BME280;13176;51.140;6.290;2023-04-15T02:27:51;100036.56;;;10.59;59.00
25232;BME280;13176;51.140;6.290;2023-04-15T02:30:18;100003.00;;;10.45;59.37
25232;BME280;13176;51.140;6.290;2023-04-15T02:32:44;100049.34;;;10.69;58.95
25232;BME280;13176;51.140;6.290;2023-04-15T02:35:11;100027.63;;;10.67;59.38
25232;BME280;13176;51.140;6.290;2023-04-15T02:37:38;100031.03;;;10.71;59.12
25232;BME280;13176;51.140;6.290;2023-04-15T02:40:11;100015.63;;;10.60;58.95
25232;BME280;13176;51.140;6.290;2023-04-15T02:42:39;100068.13;;;10.83;58.96
25232;BME280;13176;51.140;6.290;2023-04-15T02:45:06;100063.19;;;10.71;59.79
25232;BME280;13176;51.140;6.290;2023-04-15T02:47:34;100028.25;;;10.43;59.71
25232;BME280;13176;51.140;6.290;2023-04-15T02:50:02;100022.50;;;10.29;59.71
25232;BME280;13176;51.140;6.290;2023-04-15T02:52:29;100047.41;;;10.41;59.47
25232;BME280;13176;51.140;6.290;2023-04-15T02:54:55;100009.09;;;10.10;60.24
25232;BME280;13176;51.140;6.290;2023-04-15T02:57:26;100016.84;;;9.72;61.69
25232;BME280;13176;51.140;6.290;2023-04-15T02:59:55;100055.22;;;9.64;63.55
25232;BME280;13176;51.140;6.290;2023-04-15T03:02:22;100021.72;;;9.47;63.85
25232;BME280;13176;51.140;6.290;2023-04-15T03:04:48;100066.72;;;9.95;62.77
25232;BME280;13176;51.140;6.290;2023-04-15T03:07:16;100041.53;;;9.94;60.88
25232;BME280;13176;51.140;6.290;2023-04-15T03:09:43;100014.78;;;9.86;61.65
25232;BME280;13176;51.140;6.290;2023-04-15T03:12:10;99982.38;;;9.61;60.93
25232;BME280;13176;51.140;6.290;2023-04-15T03:14:36;100056.13;;;10.04;60.92
25232;BME280;13176;51.140;6.290;2023-04-15T03:17:03;100058.50;;;10.14;60.85
25232;BME280;13176;51.140;6.290;2023-04-15T03:19:29;100010.53;;;9.83;60.93
25232;BME280;13176;51.140;6.290;2023-04-15T03:21:57;99946.09;;;9.52;60.80
25232;BME280;13176;51.140;6.290;2023-04-15T03:24:23;100044.81;;;10.05;60.24
25232;BME280;13176;51.140;6.290;2023-04-15T03:26:50;100083.59;;;10.18;60.56
25232;BME280;13176;51.140;6.290;2023-04-15T03:29:16;99987.91;;;9.46;60.54
25232;BME280;13176;51.140;6.290;2023-04-15T03:31:42;100029.31;;;9.58;61.76
25232;BME280;13176;51.140;6.290;2023-04-15T03:34:09;100060.31;;;9.70;61.77
25232;BME280;13176;51.140;6.290;2023-04-15T03:36:35;100060.50;;;9.61;62.88
25232;BME280;13176;51.140;6.290;2023-04-15T03:39:02;100054.28;;;9.68;62.62
25232;BME280;13176;51.140;6.290;2023-04-15T03:41:29;100061.16;;;9.70;62.27
25232;BME280;13176;51.140;6.290;2023-04-15T03:43:56;99941.72;;;9.13;61.62
25232;BME280;13176;51.140;6.290;2023-04-15T03:46:22;99964.41;;;9.08;61.43
25232;BME280;13176;51.140;6.290;2023-04-15T03:48:48;100074.94;;;9.77;61.79
25232;BME280;13176;51.140;6.290;2023-04-15T03:51:15;100085.06;;;9.89;61.95
25232;BME280;13176;51.140;6.290;2023-04-15T03:53:41;100069.91;;;9.68;61.73
25232;BME280;13176;51.140;6.290;2023-04-15T03:56:07;100044.22;;;9.50;61.76
25232;BME280;13176;51.140;6.290;2023-04-15T03:58:34;100081.38;;;9.58;61.94
25232;BME280;13176;51.140;6.290;2023-04-15T04:01:01;100086.97;;;9.40;62.48
25232;BME280;13176;51.140;6.290;2023-04-15T04:03:27;100062.41;;;9.09;63.48
25232;BME280;13176;51.140;6.290;2023-04-15T04:05:54;100063.44;;;8.99;63.97
25232;BME280;13176;51.140;6.290;2023-04-15T04:08:21;100066.81;;;9.04;63.82
25232;BME280;13176;51.140;6.290;2023-04-15T04:10:47;100063.34;;;9.05;63.52
25232;BME280;13176;51.140;6.290;2023-04-15T04:13:14;100116.50;;;9.39;63.53
25232;BME280;13176;51.140;6.290;2023-04-15T04:15:40;100101.09;;;9.27;64.04
25232;BME280;13176;51.140;6.290;2023-04-15T04:18:07;100039.34;;;8.88;62.97
25232;BME280;13176;51.140;6.290;2023-04-15T04:20:33;100101.34;;;9.12;64.21
25232;BME280;13176;51.140;6.290;2023-04-15T04:23:00;100099.75;;;9.05;63.75
25232;BME280;13176;51.140;6.290;2023-04-15T04:25:26;100090.31;;;9.00;63.58
25232;BME280;13176;51.140;6.290;2023-04-15T04:27:53;100065.25;;;8.94;63.66
25232;BME280;13176;51.140;6.290;2023-04-15T04:30:19;100039.41;;;8.85;63.68
25232;BME280;13176;51.140;6.290;2023-04-15T04:32:46;100077.03;;;9.13;63.73
25232;BME280;13176;51.140;6.290;2023-04-15T04:35:12;100081.94;;;9.31;63.16
25232;BME280;13176;51.140;6.290;2023-04-15T04:37:38;100104.88;;;9.55;61.99
25232;BME280;13176;51.140;6.290;2023-04-15T04:40:06;100134.56;;;9.89;61.57
25232;BME280;13176;51.140;6.290;2023-04-15T04:42:33;99993.19;;;8.99;62.12
25232;BME280;13176;51.140;6.290;2023-04-15T04:44:59;100144.06;;;9.93;61.45
25232;BME280;13176;51.140;6.290;2023-04-15T04:47:26;100115.56;;;9.84;61.43
25232;BME280;13176;51.140;6.290;2023-04-15T04:49:52;100036.84;;;9.29;61.80
25232;BME280;13176;51.140;6.290;2023-04-15T04:52:19;100122.25;;;9.97;62.00
25232;BME280;13176;51.140;6.290;2023-04-15T04:54:45;100117.03;;;9.97;61.34
25232;BME280;13176;51.140;6.290;2023-04-15T04:57:12;100138.34;;;10.18;61.72
25232;BME280;13176;51.140;6.290;2023-04-15T04:59:39;100149.53;;;10.21;61.60
25232;BME280;13176;51.140;6.290;2023-04-15T05:02:06;100017.34;;;9.48;61.71
25232;BME280;13176;51.140;6.290;2023-04-15T05:04:33;100034.50;;;9.58;61.41
25232;BME280;13176;51.140;6.290;2023-04-15T05:06:59;100108.19;;;10.05;61.63
25232;BME280;13176;51.140;6.290;2023-04-15T05:09:26;100055.03;;;9.73;61.83
25232;BME280;13176;51.140;6.290;2023-04-15T05:11:52;100158.13;;;10.26;61.76
25232;BME280;13176;51.140;6.290;2023-04-15T05:14:19;100180.13;;;10.54;61.57
25232;BME280;13176;51.140;6.290;2023-04-15T05:16:48;100129.50;;;10.23;61.79
25232;BME280;13176;51.140;6.290;2023-04-15T05:19:15;100124.41;;;10.19;62.21
25232;BME280;13176;51.140;6.290;2023-04-15T05:21:41;100163.22;;;10.32;62.23
25232;BME280;13176;51.140;6.290;2023-04-15T05:24:08;100145.84;;;10.31;62.32
25232;BME280;13176;51.140;6.290;2023-04-15T05:26:34;100101.47;;;9.94;62.57
25232;BME280;13176;51.140;6.290;2023-04-15T05:29:01;100169.78;;;10.51;62.26
25232;BME280;13176;51.140;6.290;2023-04-15T05:31:28;100171.31;;;10.58;62.29
25232;BME280;13176;51.140;6.290;2023-04-15T05:33:54;100178.94;;;10.67;61.70
25232;BME280;13176;51.140;6.290;2023-04-15T05:36:21;100169.53;;;10.62;62.52
25232;BME280;13176;51.140;6.290;2023-04-15T05:38:47;100141.91;;;10.53;62.20
25232;BME280;13176;51.140;6.290;2023-04-15T05:41:13;100167.63;;;10.68;62.68
25232;BME280;13176;51.140;6.290;2023-04-15T05:43:44;100173.53;;;10.76;62.38
25232;BME280;13176;51.140;6.290;2023-04-15T05:46:11;100171.50;;;10.89;62.13
25232;BME280;13176;51.140;6.290;2023-04-15T05:48:38;100191.28;;;10.97;63.48
25232;BME280;13176;51.140;6.290;2023-04-15T05:51:04;100138.03;;;10.69;62.79
25232;BME280;13176;51.140;6.290;2023-04-15T05:53:31;100179.44;;;10.84;63.87
25232;BME280;13176;51.140;6.290;2023-04-15T05:55:57;100194.72;;;10.99;63.73
25232;BME280;13176;51.140;6.290;2023-04-15T05:58:24;100149.03;;;10.82;63.26
25232;BME280;13176;51.140;6.290;2023-04-15T06:00:50;100177.81;;;11.14;62.81
25232;BME280;13176;51.140;6.290;2023-04-15T06:03:17;100197.72;;;11.19;62.79
25232;BME280;13176;51.140;6.290;2023-04-15T06:05:43;100213.00;;;11.34;63.80
25232;BME280;13176;51.140;6.290;2023-04-15T06:08:10;100210.25;;;11.40;62.59
25232;BME280;13176;51.140;6.290;2023-04-15T06:10:37;100137.53;;;10.90;63.27
25232;BME280;13176;51.140;6.290;2023-04-15T06:13:03;100211.13;;;11.39;63.24
25232;BME280;13176;51.140;6.290;2023-04-15T06:15:30;100240.34;;;11.56;64.06
25232;BME280;13176;51.140;6.290;2023-04-15T06:17:56;100204.03;;;11.44;63.32
25232;BME280;13176;51.140;6.290;2023-04-15T06:20:23;100212.56;;;11.52;64.66
25232;BME280;13176;51.140;6.290;2023-04-15T06:22:50;100215.69;;;11.66;63.65
25232;BME280;13176;51.140;6.290;2023-04-15T06:25:17;100203.78;;;11.56;63.80
25232;BME280;13176;51.140;6.290;2023-04-15T06:27:43;100227.25;;;11.57;64.32
25232;BME280;13176;51.140;6.290;2023-04-15T06:30:10;100243.22;;;11.79;64.64
25232;BME280;13176;51.140;6.290;2023-04-15T06:32:37;100196.88;;;11.52;65.02
25232;BME280;13176;51.140;6.290;2023-04-15T06:35:03;100228.56;;;11.73;65.00
25232;BME280;13176;51.140;6.290;2023-04-15T06:37:30;100215.81;;;11.61;65.53
25232;BME280;13176;51.140;6.290;2023-04-15T06:39:57;100253.44;;;11.88;64.33
25232;BME280;13176;51.140;6.290;2023-04-15T06:42:24;100252.66;;;11.84;65.07
25232;BME280;13176;51.140;6.290;2023-04-15T06:44:50;100256.00;;;11.89;64.67
25232;BME280;13176;51.140;6.290;2023-04-15T06:47:17;100173.00;;;11.32;65.32
25232;BME280;13176;51.140;6.290;2023-04-15T06:49:43;100278.56;;;11.93;64.49
25232;BME280;13176;51.140;6.290;2023-04-15T06:52:10;100286.22;;;12.01;65.03
25232;BME280;13176;51.140;6.290;2023-04-15T06:54:36;100301.25;;;11.93;66.04
25232;BME280;13176;51.140;6.290;2023-04-15T06:57:03;100308.84;;;12.02;65.53
25232;BME280;13176;51.140;6.290;2023-04-15T06:59:29;100298.56;;;11.96;64.66
25232;BME280;13176;51.140;6.290;2023-04-15T07:01:56;100315.00;;;12.01;66.10
25232;BME280;13176;51.140;6.290;2023-04-15T07:04:22;100214.34;;;11.50;65.54
25232;BME280;13176;51.140;6.290;2023-04-15T07:06:49;100300.00;;;12.06;65.31
25232;BME280;13176;51.140;6.290;2023-04-15T07:09:16;100319.84;;;12.14;65.15
25232;BME280;13176;51.140;6.290;2023-04-15T07:11:42;100337.19;;;12.18;64.44
25232;BME280;13176;51.140;6.290;2023-04-15T07:14:08;100295.88;;;11.99;65.74
25232;BME280;13176;51.140;6.290;2023-04-15T07:16:35;100331.31;;;12.09;65.81
25232;BME280;13176;51.140;6.290;2023-04-15T07:19:01;100312.75;;;11.86;67.44
25232;BME280;13176;51.140;6.290;2023-04-15T07:21:28;100346.69;;;12.21;66.91
25232;BME280;13176;51.140;6.290;2023-04-15T07:23:55;100354.19;;;12.34;66.79
25232;BME280;13176;51.140;6.290;2023-04-15T07:26:21;100327.66;;;12.16;66.06
25232;BME280;13176;51.140;6.290;2023-04-15T07:28:48;100328.91;;;12.35;65.87
25232;BME280;13176;51.140;6.290;2023-04-15T07:31:15;100265.66;;;11.87;66.24
25232;BME280;13176;51.140;6.290;2023-04-15T07:33:42;100340.28;;;12.32;66.15
25232;BME280;13176;51.140;6.290;2023-04-15T07:36:08;100234.50;;;11.80;65.66
25232;BME280;13176;51.140;6.290;2023-04-15T07:38:35;100346.56;;;12.57;65.64
25232;BME280;13176;51.140;6.290;2023-04-15T07:41:02;100369.94;;;12.64;66.68
25232;BME280;13176;51.140;6.290;2023-04-15T07:43:29;100270.91;;;12.19;65.93
25232;BME280;13176;51.140;6.290;2023-04-15T07:45:55;100292.72;;;12.48;65.17
25232;BME280;13176;51.140;6.290;2023-04-15T07:48:21;100315.50;;;12.75;66.10
25232;BME280;13176;51.140;6.290;2023-04-15T07:50:48;100305.56;;;12.86;64.79
25232;BME280;13176;51.140;6.290;2023-04-15T07:53:14;100265.06;;;12.70;64.08
25232;BME280;13176;51.140;6.290;2023-04-15T07:55:41;100356.47;;;13.36;64.78
25232;BME280;13176;51.140;6.290;2023-04-15T07:58:07;100347.03;;;13.30;63.66
25232;BME280;13176;51.140;6.290;2023-04-15T08:00:33;100372.81;;;13.45;64.73
25232;BME280;13176;51.140;6.290;2023-04-15T08:03:00;100266.06;;;12.95;63.88
25232;BME280;13176;51.140;6.290;2023-04-15T08:05:26;100330.56;;;13.54;63.97
25232;BME280;13176;51.140;6.290;2023-04-15T08:07:53;100372.84;;;13.97;63.46
25232;BME280;13176;51.140;6.290;2023-04-15T08:10:19;100378.69;;;13.79;62.67
25232;BME280;13176;51.140;6.290;2023-04-15T08:12:46;100306.94;;;13.28;62.84
25232;BME280;13176;51.140;6.290;2023-04-15T08:15:14;100402.91;;;13.87;63.18
25232;BME280;13176;51.140;6.290;2023-04-15T08:17:41;100381.91;;;13.87;63.50
25232;BME280;13176;51.140;6.290;2023-04-15T08:20:07;100381.63;;;13.96;62.07
25232;BME280;13176;51.140;6.290;2023-04-15T08:22:34;100300.34;;;13.43;62.07
25232;BME280;13176;51.140;6.290;2023-04-15T08:25:01;100276.50;;;13.24;62.95
25232;BME280;13176;51.140;6.290;2023-04-15T08:27:28;100338.94;;;13.65;61.86
25232;BME280;13176;51.140;6.290;2023-04-15T08:29:55;100364.59;;;13.83;61.56
25232;BME280;13176;51.140;6.290;2023-04-15T08:32:21;100371.03;;;13.99;59.40
25232;BME280;13176;51.140;6.290;2023-04-15T08:34:48;100318.16;;;13.59;61.21
25232;BME280;13176;51.140;6.290;2023-04-15T08:37:14;100323.66;;;13.77;61.03
25232;BME280;13176;51.140;6.290;2023-04-15T08:39:40;100356.28;;;13.96;59.76
25232;BME280;13176;51.140;6.290;2023-04-15T08:42:11;100399.22;;;14.46;59.42
25232;BME280;13176;51.140;6.290;2023-04-15T08:44:41;100445.72;;;14.91;59.27
25232;BME280;13176;51.140;6.290;2023-04-15T08:47:08;100327.00;;;14.34;57.54
25232;BME280;13176;51.140;6.290;2023-04-15T08:49:39;100340.16;;;14.33;56.99
25232;BME280;13176;51.140;6.290;2023-04-15T08:52:07;100415.19;;;14.88;57.33
25232;BME280;13176;51.140;6.290;2023-04-15T08:54:35;100400.25;;;14.89;57.47
25232;BME280;13176;51.140;6.290;2023-04-15T08:57:02;100412.69;;;15.08;59.10
25232;BME280;13176;51.140;6.290;2023-04-15T08:59:29;100450.09;;;15.39;58.47
25232;BME280;13176;51.140;6.290;2023-04-15T09:01:56;100333.44;;;14.96;57.62
25232;BME280;13176;51.140;6.290;2023-04-15T09:04:23;100368.25;;;15.25;57.42
25232;BME280;13176;51.140;6.290;2023-04-15T09:06:50;100386.63;;;15.48;57.43
25232;BME280;13176;51.140;6.290;2023-04-15T09:09:17;100365.59;;;15.48;57.51
25232;BME280;13176;51.140;6.290;2023-04-15T09:11:43;100403.28;;;15.70;56.63
25232;BME280;13176;51.140;6.290;2023-04-15T09:14:10;100439.88;;;15.76;55.12
25232;BME280;13176;51.140;6.290;2023-04-15T09:16:57;100467.09;;;15.98;55.18
25232;BME280;13176;51.140;6.290;2023-04-15T09:19:24;100463.91;;;15.90;55.68
25232;BME280;13176;51.140;6.290;2023-04-15T09:21:53;100450.84;;;15.87;54.07
25232;BME280;13176;51.140;6.290;2023-04-15T09:24:24;100471.13;;;15.85;53.83
25232;BME280;13176;51.140;6.290;2023-04-15T09:26:53;100470.88;;;15.91;52.45
25232;BME280;13176;51.140;6.290;2023-04-15T09:29:23;100427.56;;;15.32;52.75
25232;BME280;13176;51.140;6.290;2023-04-15T09:31:50;100482.09;;;15.73;53.15
25232;BME280;13176;51.140;6.290;2023-04-15T09:34:18;100469.88;;;15.94;52.77
25232;BME280;13176;51.140;6.290;2023-04-15T09:36:51;100492.69;;;16.16;52.46
25232;BME280;13176;51.140;6.290;2023-04-15T09:39:18;100394.41;;;15.51;52.63
25232;BME280;13176;51.140;6.290;2023-04-15T09:42:03;100471.00;;;16.31;51.88
25232;BME280;13176;51.140;6.290;2023-04-15T09:44:30;100406.97;;;16.09;51.59
25232;BME280;13176;51.140;6.290;2023-04-15T09:46:59;100462.81;;;16.17;53.10
25232;BME280;13176;51.140;6.290;2023-04-15T09:49:26;100447.06;;;15.94;52.13
25232;BME280;13176;51.140;6.290;2023-04-15T09:52:00;100473.47;;;16.35;50.74
25232;BME280;13176;51.140;6.290;2023-04-15T09:54:36;100486.03;;;16.70;51.32
25232;BME280;13176;51.140;6.290;2023-04-15T09:57:07;100506.91;;;16.55;49.41
25232;BME280;13176;51.140;6.290;2023-04-15T09:59:34;100519.75;;;16.19;49.89
25232;BME280;13176;51.140;6.290;2023-04-15T10:02:03;100485.63;;;15.72;50.30
25232;BME280;13176;51.140;6.290;2023-04-15T10:04:35;100501.47;;;15.94;50.79
25232;BME280;13176;51.140;6.290;2023-04-15T10:07:04;100507.22;;;16.03;51.21
25232;BME280;13176;51.140;6.290;2023-04-15T10:09:31;100407.09;;;15.85;51.02
25232;BME280;13176;51.140;6.290;2023-04-15T10:11:59;100492.34;;;16.46;51.58
25232;BME280;13176;51.140;6.290;2023-04-15T10:14:27;100440.38;;;16.50;52.17
25232;BME280;13176;51.140;6.290;2023-04-15T10:17:00;100526.19;;;16.97;51.29
25232;BME280;13176;51.140;6.290;2023-04-15T10:19:30;100489.06;;;16.61;50.88
25232;BME280;13176;51.140;6.290;2023-04-15T10:21:58;100520.38;;;16.69;49.36
25232;BME280;13176;51.140;6.290;2023-04-15T10:24:25;100521.47;;;16.42;49.91
25232;BME280;13176;51.140;6.290;2023-04-15T10:26:53;100534.00;;;16.37;50.23
25232;BME280;13176;51.140;6.290;2023-04-15T10:29:20;100434.63;;;15.98;48.73
25232;BME280;13176;51.140;6.290;2023-04-15T10:31:48;100522.34;;;16.64;48.71
25232;BME280;13176;51.140;6.290;2023-04-15T10:34:15;100502.13;;;17.04;50.62
25232;BME280;13176;51.140;6.290;2023-04-15T10:36:42;100457.41;;;16.63;49.06
25232;BME280;13176;51.140;6.290;2023-04-15T10:42:09;100543.06;;;16.73;49.44
25232;BME280;13176;51.140;6.290;2023-04-15T10:44:37;100525.28;;;17.17;49.64
25232;BME280;13176;51.140;6.290;2023-04-15T10:47:15;100537.66;;;17.55;49.28
25232;BME280;13176;51.140;6.290;2023-04-15T10:49:56;100544.56;;;17.78;46.94
25232;BME280;13176;51.140;6.290;2023-04-15T10:52:27;100458.34;;;17.40;46.52
25232;BME280;13176;51.140;6.290;2023-04-15T10:55:13;100544.72;;;18.12;47.74
25232;BME280;13176;51.140;6.290;2023-04-15T10:57:41;100558.16;;;18.07;46.74
25232;BME280;13176;51.140;6.290;2023-04-15T11:00:15;100559.44;;;18.17;47.21
25232;BME280;13176;51.140;6.290;2023-04-15T11:02:52;100555.91;;;18.89;46.04
25232;BME280;13176;51.140;6.290;2023-04-15T11:05:21;100559.91;;;19.80;43.41
25232;BME280;13176;51.140;6.290;2023-04-15T11:07:55;100548.44;;;20.89;41.86
25232;BME280;13176;51.140;6.290;2023-04-15T11:12:59;100534.22;;;22.45;37.57
25232;BME280;13176;51.140;6.290;2023-04-15T11:15:28;100532.38;;;23.50;36.32
25232;BME280;13176;51.140;6.290;2023-04-15T11:18:15;100551.31;;;22.41;37.53
25232;BME280;13176;51.140;6.290;2023-04-15T11:20:43;100538.13;;;22.66;37.29
25232;BME280;13176;51.140;6.290;2023-04-15T11:23:10;100463.72;;;20.26;39.78
25232;BME280;13176;51.140;6.290;2023-04-15T11:25:41;100571.09;;;20.95;39.65
25232;BME280;13176;51.140;6.290;2023-04-15T11:28:08;100520.22;;;21.60;38.19
25232;BME280;13176;51.140;6.290;2023-04-15T11:30:36;100533.06;;;20.79;38.04
25232;BME280;13176;51.140;6.290;2023-04-15T11:33:05;100484.91;;;19.48;39.42
25232;BME280;13176;51.140;6.290;2023-04-15T11:35:32;100566.22;;;19.29;41.78
25232;BME280;13176;51.140;6.290;2023-04-15T11:38:02;100593.16;;;18.49;43.54
25232;BME280;13176;51.140;6.290;2023-04-15T11:40:29;100545.88;;;18.06;45.17
25232;BME280;13176;51.140;6.290;2023-04-15T11:43:09;100593.06;;;18.32;45.42
25232;BME280;13176;51.140;6.290;2023-04-15T11:45:46;100589.50;;;18.87;44.90
25232;BME280;13176;51.140;6.290;2023-04-15T11:48:13;100529.66;;;19.20;44.59
25232;BME280;13176;51.140;6.290;2023-04-15T11:50:40;100498.03;;;19.66;43.35
25232;BME280;13176;51.140;6.290;2023-04-15T11:53:08;100553.53;;;21.22;39.94
25232;BME280;13176;51.140;6.290;2023-04-15T11:55:46;100577.41;;;20.77;40.60
25232;BME280;13176;51.140;6.290;2023-04-15T11:58:14;100580.66;;;18.88;43.63
25232;BME280;13176;51.140;6.290;2023-04-15T12:00:53;100604.91;;;18.96;44.95
25232;BME280;13176;51.140;6.290;2023-04-15T12:06:06;100616.81;;;19.40;43.41
25232;BME280;13176;51.140;6.290;2023-04-15T12:14:05;100622.81;;;19.92;43.41
25232;BME280;13176;51.140;6.290;2023-04-15T12:16:33;100539.94;;;18.90;44.22
25232;BME280;13176;51.140;6.290;2023-04-15T12:19:17;100504.47;;;18.25;44.65
25232;BME280;13176;51.140;6.290;2023-04-15T12:21:46;100601.28;;;18.44;44.58
25232;BME280;13176;51.140;6.290;2023-04-15T12:24:13;100628.41;;;18.85;45.57
25232;BME280;13176;51.140;6.290;2023-04-15T12:26:44;100619.91;;;19.14;45.96
25232;BME280;13176;51.140;6.290;2023-04-15T12:29:12;100606.00;;;18.92;45.42
25232;BME280;13176;51.140;6.290;2023-04-15T12:31:58;100640.06;;;18.62;45.46
25232;BME280;13176;51.140;6.290;2023-04-15T12:34:27;100604.50;;;18.33;47.54
25232;BME280;13176;51.140;6.290;2023-04-15T12:36:54;100623.09;;;18.85;45.45
25232;BME280;13176;51.140;6.290;2023-04-15T12:39:24;100656.72;;;18.46;45.73
25232;BME280;13176;51.140;6.290;2023-04-15T12:41:54;100639.84;;;18.48;44.96
25232;BME280;13176;51.140;6.290;2023-04-15T12:44:22;100633.81;;;18.82;45.42
25232;BME280;13176;51.140;6.290;2023-04-15T12:46:50;100613.28;;;18.33;45.55
25232;BME280;13176;51.140;6.290;2023-04-15T12:49:19;100630.00;;;18.52;45.49
25232;BME280;13176;51.140;6.290;2023-04-15T12:51:48;100653.28;;;18.44;44.83
25232;BME280;13176;51.140;6.290;2023-04-15T12:54:15;100646.56;;;18.55;46.01
25232;BME280;13176;51.140;6.290;2023-04-15T12:56:46;100666.38;;;18.47;46.49
25232;BME280;13176;51.140;6.290;2023-04-15T12:59:15;100580.00;;;18.29;47.36
25232;BME280;13176;51.140;6.290;2023-04-15T13:01:51;100644.66;;;19.80;46.32
25232;BME280;13176;51.140;6.290;2023-04-15T13:04:32;100624.09;;;20.02;43.20
25232;BME280;13176;51.140;6.290;2023-04-15T13:07:00;100596.44;;;19.74;42.39
25232;BME280;13176;51.140;6.290;2023-04-15T13:09:27;100654.16;;;19.34;43.80